createdAt,value
2023-03-05T00:01:33.494Z,7.20
2023-03-05T00:03:35.024Z,4.28
2023-03-05T00:05:36.429Z,7.63
2023-03-05T00:07:37.905Z,3.22
2023-03-05T00:09:39.394Z,4.50
2023-03-05T00:11:40.841Z,5.72
2023-03-05T00:13:42.437Z,5.40
2023-03-05T00:15:43.915Z,5.03
2023-03-05T00:17:45.380Z,5.78
2023-03-05T00:19:46.820Z,3.67
2023-03-05T00:21:48.250Z,8.82
2023-03-05T00:23:50.753Z,9.35
2023-03-05T00:25:52.339Z,5.53
2023-03-05T00:27:53.699Z,8.30
2023-03-05T00:29:55.320Z,3.58
2023-03-05T00:31:57.091Z,7.30
2023-03-05T00:34:04.494Z,3.78
2023-03-05T00:36:06.733Z,5.47
2023-03-05T00:38:08.445Z,5.40
2023-03-05T00:40:10.572Z,7.25
2023-03-05T00:42:12.018Z,5.05
2023-03-05T00:44:13.669Z,7.00
2023-03-05T00:46:15.431Z,4.70
2023-03-05T00:48:16.954Z,8.15
2023-03-05T00:50:18.398Z,7.15
2023-03-05T00:52:19.757Z,9.35
2023-03-05T00:54:21.874Z,4.53
2023-03-05T00:56:23.353Z,7.57
2023-03-05T00:58:24.729Z,13.02
2023-03-05T01:00:26.148Z,4.97
2023-03-05T01:02:27.616Z,8.05
2023-03-05T01:04:29.088Z,6.45
2023-03-05T01:06:30.518Z,10.30
2023-03-05T01:08:31.950Z,9.80
2023-03-05T01:10:33.365Z,8.60
2023-03-05T01:12:34.787Z,9.95
2023-03-05T01:14:36.713Z,6.30
2023-03-05T01:16:38.150Z,9.15
2023-03-05T01:18:40.355Z,10.60
2023-03-05T01:20:41.939Z,12.43
2023-03-05T01:22:43.601Z,6.63
2023-03-05T01:24:44.987Z,6.60
2023-03-05T01:26:46.420Z,8.23
2023-03-05T01:28:49.311Z,7.30
2023-03-05T01:30:50.757Z,9.07
2023-03-05T01:32:52.273Z,6.68
2023-03-05T01:34:53.652Z,6.13
2023-03-05T01:36:55.140Z,10.73
2023-03-05T01:38:56.604Z,8.07
2023-03-05T01:40:58.001Z,9.20
2023-03-05T01:43:06.739Z,11.38
2023-03-05T01:45:14.051Z,8.45
2023-03-05T01:47:15.476Z,8.05
2023-03-05T01:49:22.990Z,9.35
2023-03-05T01:51:26.875Z,7.80
2023-03-05T01:53:28.340Z,9.68
2023-03-05T01:55:32.841Z,6.47
2023-03-05T01:57:45.553Z,10.98
2023-03-05T01:59:51.199Z,10.93
2023-03-05T02:01:55.984Z,8.13
2023-03-05T02:03:58.175Z,11.15
2023-03-05T02:05:59.760Z,10.05
2023-03-05T02:08:04.282Z,12.70
2023-03-05T02:10:16.371Z,11.23
2023-03-05T02:12:18.268Z,7.07
2023-03-05T02:14:20.582Z,8.77
2023-03-05T02:16:22.088Z,11.85
2023-03-05T02:18:23.872Z,13.27
2023-03-05T02:20:29.216Z,16.70
2023-03-05T02:22:30.743Z,10.90
2023-03-05T02:24:35.975Z,12.50
2023-03-05T02:26:37.414Z,7.80
2023-03-05T02:28:44.491Z,11.32
2023-03-05T02:30:46.398Z,8.65
2023-03-05T02:32:48.166Z,9.63
2023-03-05T02:34:49.674Z,11.60
2023-03-05T02:36:51.052Z,9.60
2023-03-05T02:38:53.592Z,9.20
2023-03-05T02:40:54.978Z,11.68
2023-03-05T02:42:56.400Z,9.10
2023-03-05T02:45:00.889Z,6.40
2023-03-05T02:47:02.367Z,12.00
2023-03-05T02:49:03.917Z,12.45
2023-03-05T02:51:06.940Z,8.00
2023-03-05T02:53:08.425Z,10.68
2023-03-05T02:55:10.389Z,6.55
2023-03-05T02:57:11.809Z,7.38
2023-03-05T02:59:13.290Z,6.45
2023-03-05T03:01:14.818Z,6.03
2023-03-05T03:03:16.397Z,9.85
2023-03-05T03:05:18.253Z,7.95
2023-03-05T03:07:19.860Z,7.85
2023-03-05T03:09:21.305Z,8.00
2023-03-05T03:11:22.794Z,10.15
2023-03-05T03:13:25.280Z,9.98
2023-03-05T03:15:26.649Z,8.27
2023-03-05T03:17:28.041Z,9.90
2023-03-05T03:19:29.410Z,12.70
2023-03-05T03:21:31.298Z,15.68
2023-03-05T03:23:33.425Z,10.75
2023-03-05T03:25:35.042Z,10.50
2023-03-05T03:27:36.666Z,9.02
2023-03-05T03:29:38.266Z,12.93
2023-03-05T03:31:41.271Z,10.35
2023-03-05T03:33:42.800Z,9.88
2023-03-05T03:35:46.338Z,9.25
2023-03-05T03:37:47.861Z,9.43
2023-03-05T03:39:49.315Z,9.13
2023-03-05T03:41:52.750Z,11.57
2023-03-05T03:43:54.333Z,10.00
2023-03-05T03:45:55.777Z,9.57
2023-03-05T03:47:57.200Z,7.85
2023-03-05T03:49:58.965Z,7.00
2023-03-05T03:52:00.560Z,12.57
2023-03-05T03:54:02.128Z,8.50
2023-03-05T03:56:03.816Z,11.02
2023-03-05T03:58:05.295Z,7.80
2023-03-05T04:00:07.346Z,7.57
2023-03-05T04:02:08.748Z,9.02
2023-03-05T04:04:12.637Z,8.45
2023-03-05T04:06:14.437Z,12.23
2023-03-05T04:08:15.877Z,8.75
2023-03-05T04:10:17.805Z,8.65
2023-03-05T04:12:19.390Z,7.43
2023-03-05T04:14:21.153Z,7.93
2023-03-05T04:16:23.365Z,10.48
2023-03-05T04:18:24.917Z,7.88
2023-03-05T04:20:26.364Z,9.07
2023-03-05T04:22:27.945Z,8.27
2023-03-05T04:24:29.377Z,9.48
2023-03-05T04:26:30.815Z,10.00
2023-03-05T04:28:33.120Z,9.63
2023-03-05T04:30:34.552Z,12.50
2023-03-05T04:32:35.983Z,7.88
2023-03-05T04:34:38.095Z,12.60
2023-03-05T04:36:39.613Z,12.13
2023-03-05T04:38:41.136Z,14.32
2023-03-05T04:40:42.798Z,11.43
2023-03-05T04:42:44.377Z,9.93
2023-03-05T04:44:47.435Z,10.30
2023-03-05T04:46:49.769Z,11.88
2023-03-05T04:48:51.204Z,13.25
2023-03-05T04:50:52.675Z,10.32
2023-03-05T04:52:54.223Z,11.30
2023-03-05T04:54:55.651Z,11.57
2023-03-05T04:56:57.071Z,12.07
2023-03-05T04:58:58.898Z,8.55
2023-03-05T05:01:02.147Z,13.77
2023-03-05T05:03:03.741Z,10.80
2023-03-05T05:05:05.565Z,13.73
2023-03-05T05:07:07.644Z,10.27
2023-03-05T05:09:09.078Z,14.30
2023-03-05T05:11:14.096Z,11.40
2023-03-05T05:13:15.485Z,12.57
2023-03-05T05:15:17.031Z,14.02
2023-03-05T05:17:18.423Z,12.50
2023-03-05T05:19:19.815Z,11.93
2023-03-05T05:21:21.325Z,12.23
2023-03-05T05:23:22.849Z,13.32
2023-03-05T05:25:24.365Z,10.77
2023-03-05T05:27:25.819Z,12.02
2023-03-05T05:29:27.261Z,14.30
2023-03-05T05:31:28.792Z,13.40
2023-03-05T05:33:30.137Z,16.33
2023-03-05T05:35:31.634Z,15.45
2023-03-05T05:37:35.838Z,11.65
2023-03-05T05:39:37.653Z,14.25
2023-03-05T05:41:39.039Z,16.55
2023-03-05T05:43:41.272Z,14.90
2023-03-05T05:45:42.925Z,16.27
2023-03-05T05:47:44.345Z,10.68
2023-03-05T05:49:46.009Z,11.88
2023-03-05T05:51:47.435Z,11.63
2023-03-05T05:53:49.574Z,12.27
2023-03-05T05:55:51.532Z,10.63
2023-03-05T05:57:52.916Z,12.18
2023-03-05T05:59:54.276Z,13.02
2023-03-05T06:01:55.727Z,14.88
2023-03-05T06:03:57.798Z,11.55
2023-03-05T06:05:59.199Z,14.20
2023-03-05T06:08:00.862Z,13.02
2023-03-05T06:10:03.173Z,12.82
2023-03-05T06:12:05.224Z,17.35
2023-03-05T06:14:08.575Z,17.98
2023-03-05T06:16:14.470Z,19.35
2023-03-05T06:18:15.881Z,20.25
2023-03-05T06:20:17.393Z,20.55
2023-03-05T06:22:18.738Z,18.92
2023-03-05T06:24:20.361Z,18.85
2023-03-05T06:26:22.831Z,20.42
2023-03-05T06:28:24.265Z,19.92
2023-03-05T06:30:25.632Z,21.50
2023-03-05T06:32:27.203Z,22.83
2023-03-05T06:34:28.643Z,22.73
2023-03-05T06:36:30.642Z,23.98
2023-03-05T06:38:32.646Z,20.70
2023-03-05T06:40:34.691Z,24.25
2023-03-05T06:42:36.105Z,23.98
2023-03-05T06:44:41.128Z,26.85
2023-03-05T06:46:42.477Z,23.02
2023-03-05T06:48:44.264Z,23.48
2023-03-05T06:50:45.745Z,24.58
2023-03-05T06:52:50.037Z,24.23
2023-03-05T06:54:51.474Z,23.67
2023-03-05T06:56:52.900Z,23.38
2023-03-05T06:58:54.537Z,28.88
2023-03-05T07:00:55.940Z,29.65
2023-03-05T07:02:57.303Z,25.70
2023-03-05T07:04:58.687Z,27.00
2023-03-05T07:07:00.445Z,30.45
2023-03-05T07:09:02.546Z,22.25
2023-03-05T07:11:04.776Z,21.92
2023-03-05T07:13:06.783Z,25.42
2023-03-05T07:15:08.848Z,18.52
2023-03-05T07:17:10.214Z,17.42
2023-03-05T07:19:11.684Z,24.73
2023-03-05T07:21:19.288Z,28.02
2023-03-05T07:23:20.687Z,21.80
2023-03-05T07:25:24.333Z,24.02
2023-03-05T07:27:25.758Z,22.65
2023-03-05T07:29:28.538Z,21.98
2023-03-05T07:31:33.405Z,22.50
2023-03-05T07:33:37.039Z,23.92
2023-03-05T07:35:41.602Z,22.23
2023-03-05T07:37:43.027Z,26.02
2023-03-05T07:39:46.401Z,24.08
2023-03-05T07:41:50.824Z,26.63
2023-03-05T07:43:53.952Z,23.98
2023-03-05T07:45:55.350Z,23.77
2023-03-05T07:47:56.959Z,24.08
2023-03-05T07:49:58.371Z,23.08
2023-03-05T07:51:59.765Z,29.48
2023-03-05T07:54:01.430Z,25.15
2023-03-05T07:56:03.043Z,25.52
2023-03-05T07:58:04.439Z,23.38
2023-03-05T08:00:07.388Z,22.42
2023-03-05T08:02:13.382Z,25.42
2023-03-05T08:04:14.976Z,24.65
2023-03-05T08:06:16.624Z,27.05
2023-03-05T08:08:18.657Z,25.08
2023-03-05T08:10:20.303Z,22.17
2023-03-05T08:12:23.093Z,25.20
2023-03-05T08:14:24.527Z,26.83
2023-03-05T08:16:26.297Z,27.85
2023-03-05T08:18:27.698Z,25.35
2023-03-05T08:20:29.093Z,26.75
2023-03-05T08:22:30.465Z,24.17
2023-03-05T08:24:31.994Z,28.60
2023-03-05T08:26:35.944Z,26.98
2023-03-05T08:28:38.039Z,24.02
2023-03-05T08:30:40.987Z,19.42
2023-03-05T08:32:42.932Z,22.05
2023-03-05T08:34:44.451Z,23.00
2023-03-05T08:36:46.285Z,21.35
2023-03-05T08:38:48.545Z,18.40
2023-03-05T08:40:49.929Z,14.57
2023-03-05T08:42:52.063Z,15.90
2023-03-05T08:44:53.680Z,17.65
2023-03-05T08:46:55.248Z,20.45
2023-03-05T08:48:56.667Z,15.60
2023-03-05T08:51:04.311Z,19.27
2023-03-05T08:53:05.714Z,19.13
2023-03-05T08:55:07.614Z,19.63
2023-03-05T08:57:09.010Z,21.40
2023-03-05T08:59:12.666Z,22.63
2023-03-05T09:01:15.182Z,21.75
2023-03-05T09:03:16.705Z,18.52
2023-03-05T09:05:19.119Z,18.52
2023-03-05T09:07:20.555Z,16.73
2023-03-05T09:09:22.904Z,15.90
2023-03-05T09:11:24.355Z,16.95
2023-03-05T09:13:25.776Z,22.52
2023-03-05T09:15:27.184Z,17.00
2023-03-05T09:17:28.572Z,17.85
2023-03-05T09:19:30.172Z,18.90
2023-03-05T09:21:31.675Z,19.25
2023-03-05T09:23:33.094Z,18.15
2023-03-05T09:25:34.644Z,18.75
2023-03-05T09:27:36.578Z,19.58
2023-03-05T09:29:37.969Z,18.38
2023-03-05T09:31:39.792Z,19.35
2023-03-05T09:33:41.531Z,19.40
2023-03-05T09:35:43.036Z,17.52
2023-03-05T09:37:44.532Z,18.92
2023-03-05T09:39:46.067Z,15.70
2023-03-05T09:42:23.331Z,13.95
2023-03-05T09:44:52.579Z,12.95
2023-03-05T09:47:15.428Z,11.55
2023-03-05T09:50:03.974Z,15.88
2023-03-05T09:52:31.601Z,14.32
2023-03-05T09:54:39.673Z,12.02
2023-03-05T09:56:44.647Z,15.45
2023-03-05T09:58:50.213Z,14.35
2023-03-05T10:01:22.037Z,16.70
2023-03-05T10:03:40.710Z,12.98
2023-03-05T10:06:02.760Z,14.18
2023-03-05T10:08:05.944Z,12.65
2023-03-05T10:10:27.493Z,11.88
2023-03-05T10:12:43.091Z,11.20
2023-03-05T10:14:44.626Z,17.35
2023-03-05T10:17:03.045Z,18.17
2023-03-05T10:19:24.314Z,15.05
2023-03-05T10:21:35.978Z,17.05
2023-03-05T10:24:00.616Z,15.98
2023-03-05T10:26:17.187Z,15.05
2023-03-05T10:28:23.621Z,15.20
2023-03-05T10:30:34.152Z,16.13
2023-03-05T10:32:55.017Z,15.43
2023-03-05T10:35:17.715Z,12.25
2023-03-05T10:37:41.875Z,12.63
2023-03-05T10:40:06.103Z,14.38
2023-03-05T10:42:28.687Z,13.75
2023-03-05T10:44:46.296Z,13.65
2023-03-05T10:46:49.083Z,16.33
2023-03-05T10:48:59.048Z,14.68
2023-03-05T10:51:22.789Z,17.15
2023-03-05T10:53:32.410Z,12.07
2023-03-05T10:55:33.842Z,7.32
2023-03-05T10:57:35.241Z,10.25
2023-03-05T10:59:36.604Z,11.05
2023-03-05T11:01:38.271Z,11.73
2023-03-05T11:03:50.609Z,13.40
2023-03-05T11:06:00.136Z,13.23
2023-03-05T11:08:17.583Z,14.10
2023-03-05T11:10:21.300Z,13.48
2023-03-05T11:12:26.853Z,14.40
2023-03-05T11:14:31.319Z,12.40
2023-03-05T11:16:35.161Z,15.25
2023-03-05T11:18:37.619Z,13.95
2023-03-05T11:20:39.915Z,16.15
2023-03-05T11:22:41.392Z,12.85
2023-03-05T11:24:46.621Z,15.32
2023-03-05T11:26:53.674Z,15.50
2023-03-05T11:28:58.968Z,13.93
2023-03-05T11:31:08.460Z,14.95
2023-03-05T11:33:16.003Z,14.95
2023-03-05T11:35:35.889Z,11.90
2023-03-05T11:39:40.178Z,15.98
2023-03-05T11:41:41.679Z,13.80
2023-03-05T11:43:43.883Z,14.48
2023-03-05T11:45:47.315Z,15.13
2023-03-05T11:47:51.295Z,12.10
2023-03-05T11:50:02.088Z,12.20
2023-03-05T11:52:26.561Z,14.05
2023-03-05T11:54:39.028Z,13.93
2023-03-05T11:56:43.520Z,10.57
2023-03-05T11:59:01.681Z,9.63
2023-03-05T12:01:07.041Z,9.30
2023-03-05T12:03:14.135Z,11.38
2023-03-05T12:07:28.261Z,9.90
2023-03-05T12:09:50.785Z,10.10
2023-03-05T12:12:02.272Z,9.68
2023-03-05T12:14:06.816Z,8.93
2023-03-05T12:16:41.465Z,10.43
2023-03-05T12:19:01.050Z,9.48
2023-03-05T12:21:15.157Z,11.07
2023-03-05T12:23:19.699Z,7.88
2023-03-05T12:25:26.891Z,9.60
2023-03-05T12:27:35.075Z,8.38
2023-03-05T12:29:50.959Z,9.63
2023-03-05T12:31:52.479Z,9.63
2023-03-05T12:33:54.124Z,6.95
2023-03-05T12:36:21.171Z,8.93
2023-03-05T12:38:33.173Z,9.60
2023-03-05T12:40:35.039Z,8.23
2023-03-05T12:42:46.330Z,8.63
2023-03-05T12:45:14.564Z,9.15
2023-03-05T12:47:19.199Z,8.10
2023-03-05T12:49:21.098Z,6.45
2023-03-05T12:51:32.975Z,10.48
2023-03-05T12:53:34.903Z,6.95
2023-03-05T12:55:40.845Z,7.22
2023-03-05T12:57:45.663Z,6.95
2023-03-05T12:59:58.440Z,7.57
2023-03-05T13:02:03.706Z,7.10
2023-03-05T13:04:11.666Z,6.03
2023-03-05T13:06:34.195Z,7.25
2023-03-05T13:08:37.203Z,6.50
2023-03-05T13:10:39.746Z,5.50
2023-03-05T13:12:52.887Z,5.93
2023-03-05T13:15:15.367Z,6.72
2023-03-05T13:17:27.900Z,8.00
2023-03-05T13:19:32.773Z,6.22
2023-03-05T13:21:35.353Z,6.78
2023-03-05T13:23:37.367Z,7.28
2023-03-05T13:25:38.806Z,7.85
2023-03-05T13:27:41.431Z,6.85
2023-03-05T13:29:52.342Z,8.80
2023-03-05T13:32:02.470Z,8.02
2023-03-05T13:34:20.961Z,8.13
2023-03-05T13:36:24.128Z,8.10
2023-03-05T13:38:38.873Z,8.80
2023-03-05T13:40:41.516Z,6.15
2023-03-05T13:42:42.933Z,7.30
2023-03-05T13:44:54.655Z,6.22
2023-03-05T13:47:08.095Z,7.53
2023-03-05T13:49:21.607Z,7.57
2023-03-05T13:51:23.234Z,7.05
2023-03-05T13:53:28.295Z,7.57
2023-03-05T13:55:29.730Z,8.43
2023-03-05T13:57:50.914Z,9.93
2023-03-05T13:59:53.096Z,8.60
2023-03-05T14:01:56.399Z,8.73
2023-03-05T14:04:25.403Z,9.93
2023-03-05T14:06:28.736Z,9.70
2023-03-05T14:08:30.870Z,11.43
2023-03-05T14:10:38.273Z,10.82
2023-03-05T14:12:43.645Z,9.23
2023-03-05T14:14:45.433Z,9.43
2023-03-05T14:16:46.921Z,8.82
2023-03-05T14:19:00.288Z,8.20
2023-03-05T14:21:11.006Z,8.68
2023-03-05T14:23:45.898Z,7.40
2023-03-05T14:25:47.378Z,9.73
2023-03-05T14:27:48.899Z,9.90
2023-03-05T14:29:50.510Z,7.68
2023-03-05T14:32:02.969Z,9.10
2023-03-05T14:34:07.183Z,11.40
2023-03-05T14:36:10.213Z,7.25
2023-03-05T14:38:22.281Z,9.05
2023-03-05T14:40:30.859Z,8.43
2023-03-05T14:42:34.277Z,6.43
2023-03-05T14:44:36.345Z,9.13
2023-03-05T14:46:37.941Z,6.85
2023-03-05T14:48:39.409Z,7.20
2023-03-05T14:50:56.860Z,7.65
2023-03-05T14:53:06.796Z,9.32
2023-03-05T14:55:15.321Z,9.95
2023-03-05T14:57:20.979Z,8.45
2023-03-05T14:59:22.429Z,8.20
2023-03-05T15:01:25.252Z,8.55
2023-03-05T15:03:27.901Z,8.90
2023-03-05T15:05:29.411Z,8.52
2023-03-05T15:07:32.021Z,7.43
2023-03-05T15:09:33.590Z,9.07
2023-03-05T15:11:35.171Z,9.32
2023-03-05T15:13:36.734Z,8.48
2023-03-05T15:15:39.641Z,7.68
2023-03-05T15:17:43.726Z,8.27
2023-03-05T15:19:47.002Z,10.75
2023-03-05T15:21:48.444Z,9.75
2023-03-05T15:23:49.893Z,7.25
2023-03-05T15:25:51.341Z,9.90
2023-03-05T15:27:52.964Z,7.53
2023-03-05T15:29:54.337Z,7.57
2023-03-05T15:31:56.682Z,9.18
2023-03-05T15:33:58.046Z,9.98
2023-03-05T15:35:59.723Z,8.15
2023-03-05T15:38:01.326Z,7.82
2023-03-05T15:40:02.792Z,8.63
2023-03-05T15:42:06.347Z,8.13
2023-03-05T15:44:07.917Z,7.70
2023-03-05T15:46:09.414Z,10.50
2023-03-05T15:48:11.091Z,8.63
2023-03-05T15:50:12.482Z,9.65
2023-03-05T15:52:15.631Z,10.32
2023-03-05T15:54:17.252Z,10.88
2023-03-05T15:56:19.579Z,9.77
2023-03-05T15:58:21.700Z,10.90
2023-03-05T16:00:29.213Z,10.80
2023-03-05T16:02:30.606Z,8.13
2023-03-05T16:04:32.060Z,10.38
2023-03-05T16:06:34.361Z,12.77
2023-03-05T16:08:36.842Z,11.13
2023-03-05T16:10:39.531Z,11.18
2023-03-05T16:12:42.857Z,10.75
2023-03-05T16:14:45.728Z,11.95
2023-03-05T16:16:47.488Z,11.45
2023-03-05T16:18:49.355Z,13.43
2023-03-05T16:20:51.645Z,12.50
2023-03-05T16:22:53.100Z,11.98
2023-03-05T16:24:54.544Z,13.10
2023-03-05T16:26:55.933Z,13.77
2023-03-05T16:28:57.361Z,12.27
2023-03-05T16:30:58.802Z,13.50
2023-03-05T16:33:00.563Z,12.10
2023-03-05T16:35:01.938Z,12.80
2023-03-05T16:37:06.795Z,14.30
2023-03-05T16:39:08.190Z,11.60
2023-03-05T16:41:09.657Z,11.80
2023-03-05T16:43:11.058Z,12.50
2023-03-05T16:45:12.959Z,11.70
2023-03-05T16:47:14.540Z,10.20
2023-03-05T16:49:16.523Z,11.38
2023-03-05T16:51:19.934Z,10.43
2023-03-05T16:53:21.995Z,10.05
2023-03-05T16:55:23.397Z,11.15
2023-03-05T16:57:25.475Z,13.43
2023-03-05T16:59:27.426Z,12.15
2023-03-05T17:01:30.292Z,13.27
2023-03-05T17:03:31.670Z,11.35
2023-03-05T17:05:36.129Z,12.30
2023-03-05T17:07:37.529Z,10.40
2023-03-05T17:09:39.034Z,10.70
2023-03-05T17:11:40.388Z,12.68
2023-03-05T17:13:42.370Z,10.15
2023-03-05T17:17:50.927Z,10.20
2023-03-05T17:19:52.435Z,11.40
2023-03-05T17:21:53.776Z,11.05
2023-03-05T17:23:55.225Z,11.85
2023-03-05T17:25:57.066Z,13.60
2023-03-05T17:27:58.493Z,11.95
2023-03-05T17:30:00.123Z,11.57
2023-03-05T17:32:01.767Z,17.08
2023-03-05T17:34:03.340Z,11.65
2023-03-05T17:36:05.617Z,14.80
2023-03-05T17:38:07.954Z,13.98
2023-03-05T17:40:15.250Z,11.65
2023-03-05T17:42:20.356Z,13.05
2023-03-05T17:44:21.871Z,11.95
2023-03-05T17:46:23.350Z,11.73
2023-03-05T17:48:25.248Z,10.90
2023-03-05T17:50:26.717Z,10.40
2023-03-05T17:52:28.114Z,11.00
2023-03-05T17:54:29.701Z,11.15
2023-03-05T17:56:32.795Z,10.23
2023-03-05T17:58:34.318Z,10.25
2023-03-05T18:00:36.417Z,11.23
2023-03-05T18:02:38.070Z,10.10
2023-03-05T18:04:41.200Z,11.98
2023-03-05T18:06:43.499Z,11.43
2023-03-05T18:08:45.055Z,12.73
2023-03-05T18:10:46.556Z,13.18
2023-03-05T18:12:49.156Z,11.23
2023-03-05T18:14:51.003Z,11.82
2023-03-05T18:16:52.541Z,11.75
2023-03-05T18:18:54.129Z,11.05
2023-03-05T18:20:55.530Z,12.30
2023-03-05T18:22:58.776Z,12.63
2023-03-05T18:25:00.236Z,14.23
2023-03-05T18:27:01.685Z,13.05
2023-03-05T18:29:03.501Z,12.07
2023-03-05T18:31:05.424Z,12.93
2023-03-05T18:33:08.002Z,16.17
2023-03-05T18:35:10.377Z,17.05
2023-03-05T18:37:11.768Z,15.68
2023-03-05T18:39:15.254Z,14.30
2023-03-05T18:41:22.226Z,14.30
2023-03-05T18:43:24.638Z,14.88
2023-03-05T18:45:26.180Z,11.90
2023-03-05T18:47:28.727Z,16.95
2023-03-05T18:49:30.536Z,14.18
2023-03-05T18:51:34.134Z,14.65
2023-03-05T18:53:35.568Z,14.38
2023-03-05T18:55:37.089Z,16.13
2023-03-05T18:57:38.740Z,16.40
2023-03-05T18:59:40.249Z,17.08
2023-03-05T19:01:41.837Z,15.95
2023-03-05T19:03:44.274Z,19.50
2023-03-05T19:05:45.665Z,17.98
2023-03-05T19:07:47.752Z,18.25
2023-03-05T19:09:57.713Z,17.95
2023-03-05T19:12:00.775Z,17.90
2023-03-05T19:14:02.182Z,16.83
2023-03-05T19:16:09.388Z,17.15
2023-03-05T19:18:10.838Z,19.73
2023-03-05T19:20:13.449Z,20.17
2023-03-05T19:22:14.863Z,17.52
2023-03-05T19:24:17.138Z,18.55
2023-03-05T19:26:18.626Z,20.98
2023-03-05T19:28:21.199Z,19.83
2023-03-05T19:30:22.750Z,21.25
2023-03-05T19:32:24.312Z,20.45
2023-03-05T19:34:27.576Z,17.45
2023-03-05T19:36:30.314Z,16.73
2023-03-05T19:38:31.683Z,16.27
2023-03-05T19:40:33.132Z,19.42
2023-03-05T19:42:36.170Z,17.50
2023-03-05T19:44:37.659Z,18.55
2023-03-05T19:46:41.830Z,15.82
2023-03-05T19:48:44.175Z,14.80
2023-03-05T19:50:45.665Z,16.70
2023-03-05T19:52:47.094Z,14.43
2023-03-05T19:54:48.471Z,12.07
2023-03-05T19:56:52.354Z,13.18
2023-03-05T19:58:55.256Z,13.65
2023-03-05T20:00:58.307Z,13.98
2023-03-05T20:02:59.706Z,13.88
2023-03-05T20:05:01.379Z,13.52
2023-03-05T20:07:03.753Z,12.60
2023-03-05T20:09:07.615Z,13.43
2023-03-05T20:11:10.880Z,13.85
2023-03-05T20:13:12.489Z,15.50
2023-03-05T20:15:14.681Z,12.65
2023-03-05T20:17:16.221Z,14.63
2023-03-05T20:19:18.357Z,12.88
2023-03-05T20:21:23.165Z,13.02
2023-03-05T20:23:24.770Z,11.45
2023-03-05T20:25:26.301Z,11.88
2023-03-05T20:27:27.723Z,12.52
2023-03-05T20:29:29.156Z,9.75
2023-03-05T20:31:31.140Z,8.75
2023-03-05T20:33:32.752Z,9.18
2023-03-05T20:35:34.234Z,11.55
2023-03-05T20:37:40.178Z,10.15
2023-03-05T20:39:42.137Z,10.45
2023-03-05T20:41:44.162Z,10.90
2023-03-05T20:43:48.795Z,10.60
2023-03-05T20:45:50.644Z,11.55
2023-03-05T20:47:52.252Z,13.05
2023-03-05T20:49:56.515Z,10.80
2023-03-05T20:51:58.069Z,10.90
2023-03-05T20:54:04.019Z,11.02
2023-03-05T20:56:05.922Z,10.20
2023-03-05T20:58:07.914Z,9.38
2023-03-05T21:00:10.345Z,10.38
2023-03-05T21:02:11.770Z,8.95
2023-03-05T21:04:13.226Z,10.18
2023-03-05T21:06:14.582Z,7.85
2023-03-05T21:08:16.035Z,7.18
2023-03-05T21:10:17.704Z,7.97
2023-03-05T21:12:19.151Z,6.75
2023-03-05T21:14:20.671Z,7.97
2023-03-05T21:16:27.382Z,8.60
2023-03-05T21:18:29.552Z,11.77
2023-03-05T21:20:31.101Z,10.50
2023-03-05T21:22:33.491Z,9.68
2023-03-05T21:24:50.504Z,10.18
2023-03-05T21:26:52.094Z,9.10
2023-03-05T21:28:53.649Z,8.75
2023-03-05T21:30:55.446Z,9.18
2023-03-05T21:33:01.766Z,9.30
2023-03-05T21:35:03.539Z,10.13
2023-03-05T21:37:05.077Z,12.85
2023-03-05T21:39:06.642Z,11.02
2023-03-05T21:41:08.096Z,11.68
2023-03-05T21:43:11.869Z,11.77
2023-03-05T21:45:16.551Z,10.13
2023-03-05T21:47:17.926Z,12.32
2023-03-05T21:49:19.314Z,11.90
2023-03-05T21:51:28.253Z,12.38
2023-03-05T21:53:29.737Z,16.35
2023-03-05T21:55:35.068Z,12.40
2023-03-05T21:57:36.541Z,12.77
2023-03-05T21:59:42.243Z,14.68
2023-03-05T22:01:43.681Z,15.48
2023-03-05T22:03:45.905Z,16.40
2023-03-05T22:05:47.349Z,14.68
2023-03-05T22:07:48.744Z,14.98
2023-03-05T22:09:55.431Z,15.32
2023-03-05T22:11:57.193Z,16.52
2023-03-05T22:13:58.589Z,15.52
2023-03-05T22:15:59.976Z,14.00
2023-03-05T22:18:01.439Z,14.25
2023-03-05T22:20:03.578Z,12.48
2023-03-05T22:22:05.037Z,12.55
2023-03-05T22:24:06.579Z,12.10
2023-03-05T22:26:08.051Z,11.60
2023-03-05T22:28:11.776Z,16.42
2023-03-05T22:30:15.836Z,14.77
2023-03-05T22:32:17.461Z,15.73
2023-03-05T22:34:18.834Z,11.85
2023-03-05T22:36:20.396Z,13.20
2023-03-05T22:38:22.190Z,13.27
2023-03-05T22:40:23.704Z,14.85
2023-03-05T22:42:25.247Z,13.80
2023-03-05T22:44:26.753Z,17.15
2023-03-05T22:46:28.186Z,19.88
2023-03-05T22:48:29.568Z,17.75
2023-03-05T22:50:31.013Z,17.38
2023-03-05T22:52:32.478Z,15.60
2023-03-05T22:54:33.889Z,20.25
2023-03-05T22:56:36.446Z,18.40
2023-03-05T22:58:38.225Z,17.73
2023-03-05T23:00:40.270Z,16.65
2023-03-05T23:02:42.714Z,17.23
2023-03-05T23:04:49.269Z,19.88
2023-03-05T23:06:50.919Z,18.25
2023-03-05T23:08:52.323Z,18.92
2023-03-05T23:10:53.744Z,17.52
2023-03-05T23:12:56.990Z,17.70
2023-03-05T23:15:03.950Z,18.48
2023-03-05T23:17:05.527Z,16.83
2023-03-05T23:19:06.927Z,22.02
2023-03-05T23:21:08.344Z,21.50
2023-03-05T23:23:09.775Z,19.83
2023-03-05T23:25:13.854Z,17.73
2023-03-05T23:27:17.216Z,20.58
2023-03-05T23:29:18.747Z,19.00
2023-03-05T23:31:20.211Z,18.83
2023-03-05T23:33:23.777Z,19.33
2023-03-05T23:35:31.081Z,21.23
2023-03-05T23:37:32.530Z,21.23
2023-03-05T23:39:33.926Z,20.48
2023-03-05T23:41:35.282Z,21.52
2023-03-05T23:43:36.698Z,21.02
2023-03-05T23:45:38.521Z,22.48
2023-03-05T23:47:40.446Z,22.83
2023-03-05T23:49:41.884Z,17.38
2023-03-05T23:51:43.244Z,22.27
2023-03-05T23:53:44.661Z,22.20
2023-03-05T23:55:46.232Z,22.05
2023-03-05T23:57:48.033Z,20.17
2023-03-05T23:59:49.457Z,21.75
